sensor_id;sensor_type;location;lat;lon;timestamp;P1;durP1;ratioP1;P2;durP2;ratioP2
10729;SDS011;5416;59.258;18.128;2023-05-07T00:01:50;3.90;;;3.80;;
10729;SDS011;5416;59.258;18.128;2023-05-07T00:04:18;3.28;;;3.17;;
10729;SDS011;5416;59.258;18.128;2023-05-07T00:06:45;3.58;;;3.47;;
10729;SDS011;5416;59.258;18.128;2023-05-07T00:09:13;3.45;;;3.35;;
10729;SDS011;5416;59.258;18.128;2023-05-07T00:11:41;3.10;;;3.00;;
10729;SDS011;5416;59.258;18.128;2023-05-07T00:14:09;3.42;;;3.33;;
10729;SDS011;5416;59.258;18.128;2023-05-07T00:16:37;3.20;;;3.10;;
10729;SDS011;5416;59.258;18.128;2023-05-07T00:19:05;3.15;;;3.05;;
10729;SDS011;5416;59.258;18.128;2023-05-07T00:21:32;3.47;;;3.37;;
10729;SDS011;5416;59.258;18.128;2023-05-07T00:23:59;3.00;;;2.90;;
10729;SDS011;5416;59.258;18.128;2023-05-07T00:26:26;3.67;;;3.57;;
10729;SDS011;5416;59.258;18.128;2023-05-07T00:28:54;3.80;;;3.70;;
10729;SDS011;5416;59.258;18.128;2023-05-07T00:31:21;3.10;;;3.00;;
10729;SDS011;5416;59.258;18.128;2023-05-07T00:33:50;3.53;;;3.42;;
10729;SDS011;5416;59.258;18.128;2023-05-07T00:36:17;3.67;;;3.58;;
10729;SDS011;5416;59.258;18.128;2023-05-07T00:38:44;3.38;;;3.28;;
10729;SDS011;5416;59.258;18.128;2023-05-07T00:41:11;3.10;;;3.00;;
10729;SDS011;5416;59.258;18.128;2023-05-07T00:43:39;3.78;;;3.67;;
10729;SDS011;5416;59.258;18.128;2023-05-07T00:46:06;3.00;;;2.90;;
10729;SDS011;5416;59.258;18.128;2023-05-07T00:48:33;3.27;;;3.17;;
10729;SDS011;5416;59.258;18.128;2023-05-07T00:51:02;3.43;;;3.33;;
10729;SDS011;5416;59.258;18.128;2023-05-07T00:53:30;3.38;;;3.28;;
10729;SDS011;5416;59.258;18.128;2023-05-07T00:55:57;3.60;;;3.50;;
10729;SDS011;5416;59.258;18.128;2023-05-07T00:58:25;4.13;;;4.03;;
10729;SDS011;5416;59.258;18.128;2023-05-07T01:00:53;3.40;;;3.30;;
10729;SDS011;5416;59.258;18.128;2023-05-07T01:03:20;3.70;;;3.60;;
10729;SDS011;5416;59.258;18.128;2023-05-07T01:05:48;4.18;;;4.07;;
10729;SDS011;5416;59.258;18.128;2023-05-07T01:08:17;3.30;;;3.20;;
10729;SDS011;5416;59.258;18.128;2023-05-07T01:10:44;3.78;;;3.67;;
10729;SDS011;5416;59.258;18.128;2023-05-07T01:13:12;3.70;;;3.60;;
10729;SDS011;5416;59.258;18.128;2023-05-07T01:15:41;3.33;;;3.22;;
10729;SDS011;5416;59.258;18.128;2023-05-07T01:18:08;3.85;;;3.75;;
10729;SDS011;5416;59.258;18.128;2023-05-07T01:20:36;3.53;;;3.43;;
10729;SDS011;5416;59.258;18.128;2023-05-07T01:23:04;2.88;;;2.78;;
10729;SDS011;5416;59.258;18.128;2023-05-07T01:25:33;3.63;;;3.53;;
10729;SDS011;5416;59.258;18.128;2023-05-07T01:28:01;3.10;;;3.00;;
10729;SDS011;5416;59.258;18.128;2023-05-07T01:30:28;3.33;;;3.22;;
10729;SDS011;5416;59.258;18.128;2023-05-07T01:32:57;3.80;;;3.70;;
10729;SDS011;5416;59.258;18.128;2023-05-07T01:35:26;2.97;;;2.88;;
10729;SDS011;5416;59.258;18.128;2023-05-07T01:37:54;2.95;;;2.85;;
10729;SDS011;5416;59.258;18.128;2023-05-07T01:40:23;3.95;;;3.85;;
10729;SDS011;5416;59.258;18.128;2023-05-07T01:42:51;3.17;;;3.08;;
10729;SDS011;5416;59.258;18.128;2023-05-07T01:45:19;3.45;;;3.35;;
10729;SDS011;5416;59.258;18.128;2023-05-07T01:47:46;3.60;;;3.50;;
10729;SDS011;5416;59.258;18.128;2023-05-07T01:50:13;2.90;;;2.80;;
10729;SDS011;5416;59.258;18.128;2023-05-07T01:52:42;3.40;;;3.30;;
10729;SDS011;5416;59.258;18.128;2023-05-07T01:55:10;3.53;;;3.42;;
10729;SDS011;5416;59.258;18.128;2023-05-07T01:57:39;3.03;;;2.92;;
10729;SDS011;5416;59.258;18.128;2023-05-07T02:00:07;3.40;;;3.30;;
10729;SDS011;5416;59.258;18.128;2023-05-07T02:02:35;2.80;;;2.70;;
10729;SDS011;5416;59.258;18.128;2023-05-07T02:05:03;3.50;;;3.40;;
10729;SDS011;5416;59.258;18.128;2023-05-07T02:07:30;3.40;;;3.30;;
10729;SDS011;5416;59.258;18.128;2023-05-07T02:09:58;2.88;;;2.78;;
10729;SDS011;5416;59.258;18.128;2023-05-07T02:12:25;3.40;;;3.30;;
10729;SDS011;5416;59.258;18.128;2023-05-07T02:14:54;3.53;;;3.43;;
10729;SDS011;5416;59.258;18.128;2023-05-07T02:17:21;3.28;;;3.17;;
10729;SDS011;5416;59.258;18.128;2023-05-07T02:19:48;3.30;;;3.20;;
10729;SDS011;5416;59.258;18.128;2023-05-07T02:22:16;3.47;;;3.38;;
10729;SDS011;5416;59.258;18.128;2023-05-07T02:24:43;3.20;;;3.10;;
10729;SDS011;5416;59.258;18.128;2023-05-07T02:27:10;3.75;;;3.65;;
10729;SDS011;5416;59.258;18.128;2023-05-07T02:29:37;2.90;;;2.80;;
10729;SDS011;5416;59.258;18.128;2023-05-07T02:32:06;3.27;;;3.17;;
10729;SDS011;5416;59.258;18.128;2023-05-07T02:34:34;3.80;;;3.70;;
10729;SDS011;5416;59.258;18.128;2023-05-07T02:37:01;3.17;;;3.08;;
10729;SDS011;5416;59.258;18.128;2023-05-07T02:39:28;3.60;;;3.50;;
10729;SDS011;5416;59.258;18.128;2023-05-07T02:41:56;3.08;;;2.97;;
10729;SDS011;5416;59.258;18.128;2023-05-07T02:44:23;3.20;;;3.10;;
10729;SDS011;5416;59.258;18.128;2023-05-07T02:46:50;3.58;;;3.47;;
10729;SDS011;5416;59.258;18.128;2023-05-07T02:49:19;2.85;;;2.75;;
10729;SDS011;5416;59.258;18.128;2023-05-07T02:51:46;3.17;;;3.08;;
10729;SDS011;5416;59.258;18.128;2023-05-07T02:54:14;3.60;;;3.50;;
10729;SDS011;5416;59.258;18.128;2023-05-07T02:56:42;2.92;;;2.83;;
10729;SDS011;5416;59.258;18.128;2023-05-07T02:59:10;3.38;;;3.28;;
10729;SDS011;5416;59.258;18.128;2023-05-07T03:01:37;3.40;;;3.30;;
10729;SDS011;5416;59.258;18.128;2023-05-07T03:04:04;3.15;;;3.05;;
10729;SDS011;5416;59.258;18.128;2023-05-07T03:06:33;3.45;;;3.35;;
10729;SDS011;5416;59.258;18.128;2023-05-07T03:09:00;3.10;;;3.00;;
10729;SDS011;5416;59.258;18.128;2023-05-07T03:11:28;3.33;;;3.23;;
10729;SDS011;5416;59.258;18.128;2023-05-07T03:13:55;3.83;;;3.72;;
10729;SDS011;5416;59.258;18.128;2023-05-07T03:16:22;2.97;;;2.88;;
10729;SDS011;5416;59.258;18.128;2023-05-07T03:18:50;3.15;;;3.05;;
10729;SDS011;5416;59.258;18.128;2023-05-07T03:21:18;3.60;;;3.50;;
10729;SDS011;5416;59.258;18.128;2023-05-07T03:23:46;3.30;;;3.20;;
10729;SDS011;5416;59.258;18.128;2023-05-07T03:26:14;3.35;;;3.25;;
10729;SDS011;5416;59.258;18.128;2023-05-07T03:28:41;3.30;;;3.20;;
10729;SDS011;5416;59.258;18.128;2023-05-07T03:31:08;3.30;;;3.20;;
10729;SDS011;5416;59.258;18.128;2023-05-07T03:33:38;3.70;;;3.60;;
10729;SDS011;5416;59.258;18.128;2023-05-07T03:36:06;3.03;;;2.92;;
10729;SDS011;5416;59.258;18.128;2023-05-07T03:38:33;3.22;;;3.13;;
10729;SDS011;5416;59.258;18.128;2023-05-07T03:41:02;3.72;;;3.63;;
10729;SDS011;5416;59.258;18.128;2023-05-07T03:43:29;3.10;;;3.00;;
10729;SDS011;5416;59.258;18.128;2023-05-07T03:45:57;3.25;;;3.15;;
10729;SDS011;5416;59.258;18.128;2023-05-07T03:48:24;3.90;;;3.80;;
10729;SDS011;5416;59.258;18.128;2023-05-07T03:50:51;3.20;;;3.10;;
10729;SDS011;5416;59.258;18.128;2023-05-07T03:53:18;2.80;;;2.70;;
10729;SDS011;5416;59.258;18.128;2023-05-07T03:55:46;3.70;;;3.60;;
10729;SDS011;5416;59.258;18.128;2023-05-07T03:58:14;3.20;;;3.10;;
10729;SDS011;5416;59.258;18.128;2023-05-07T04:00:42;3.10;;;3.00;;
10729;SDS011;5416;59.258;18.128;2023-05-07T04:03:09;3.80;;;3.70;;
10729;SDS011;5416;59.258;18.128;2023-05-07T04:05:36;3.92;;;3.83;;
10729;SDS011;5416;59.258;18.128;2023-05-07T04:08:04;3.53;;;3.42;;
10729;SDS011;5416;59.258;18.128;2023-05-07T04:10:31;3.60;;;3.50;;
10729;SDS011;5416;59.258;18.128;2023-05-07T04:12:58;3.72;;;3.63;;
10729;SDS011;5416;59.258;18.128;2023-05-07T04:15:27;3.38;;;3.28;;
10729;SDS011;5416;59.258;18.128;2023-05-07T04:17:54;3.38;;;3.28;;
10729;SDS011;5416;59.258;18.128;2023-05-07T04:20:22;3.70;;;3.60;;
10729;SDS011;5416;59.258;18.128;2023-05-07T04:22:49;4.00;;;3.90;;
10729;SDS011;5416;59.258;18.128;2023-05-07T04:25:16;3.78;;;3.67;;
10729;SDS011;5416;59.258;18.128;2023-05-07T04:27:44;3.38;;;3.28;;
10729;SDS011;5416;59.258;18.128;2023-05-07T04:30:11;3.72;;;3.63;;
10729;SDS011;5416;59.258;18.128;2023-05-07T04:32:40;3.90;;;3.80;;
10729;SDS011;5416;59.258;18.128;2023-05-07T04:35:09;4.15;;;4.05;;
10729;SDS011;5416;59.258;18.128;2023-05-07T04:37:36;4.05;;;3.95;;
10729;SDS011;5416;59.258;18.128;2023-05-07T04:40:04;4.27;;;4.17;;
10729;SDS011;5416;59.258;18.128;2023-05-07T04:42:32;5.13;;;4.93;;
10729;SDS011;5416;59.258;18.128;2023-05-07T04:44:59;4.45;;;4.35;;
10729;SDS011;5416;59.258;18.128;2023-05-07T04:47:27;4.47;;;4.38;;
10729;SDS011;5416;59.258;18.128;2023-05-07T04:49:55;4.40;;;4.30;;
10729;SDS011;5416;59.258;18.128;2023-05-07T04:52:23;4.30;;;4.20;;
10729;SDS011;5416;59.258;18.128;2023-05-07T04:54:50;4.65;;;4.53;;
10729;SDS011;5416;59.258;18.128;2023-05-07T04:57:18;4.35;;;4.25;;
10729;SDS011;5416;59.258;18.128;2023-05-07T04:59:45;4.67;;;4.50;;
10729;SDS011;5416;59.258;18.128;2023-05-07T05:02:12;4.20;;;4.10;;
10729;SDS011;5416;59.258;18.128;2023-05-07T05:04:39;4.40;;;4.30;;
10729;SDS011;5416;59.258;18.128;2023-05-07T05:07:08;4.68;;;4.53;;
10729;SDS011;5416;59.258;18.128;2023-05-07T05:09:35;4.05;;;3.95;;
10729;SDS011;5416;59.258;18.128;2023-05-07T05:12:03;4.20;;;4.10;;
10729;SDS011;5416;59.258;18.128;2023-05-07T05:14:32;4.60;;;4.50;;
10729;SDS011;5416;59.258;18.128;2023-05-07T05:16:59;4.45;;;4.35;;
10729;SDS011;5416;59.258;18.128;2023-05-07T05:19:26;4.10;;;4.00;;
10729;SDS011;5416;59.258;18.128;2023-05-07T05:21:54;4.00;;;3.90;;
10729;SDS011;5416;59.258;18.128;2023-05-07T05:24:22;4.70;;;4.53;;
10729;SDS011;5416;59.258;18.128;2023-05-07T05:26:50;3.97;;;3.88;;
10729;SDS011;5416;59.258;18.128;2023-05-07T05:29:17;4.03;;;3.92;;
10729;SDS011;5416;59.258;18.128;2023-05-07T05:31:44;4.82;;;4.63;;
10729;SDS011;5416;59.258;18.128;2023-05-07T05:34:11;4.63;;;4.53;;
10729;SDS011;5416;59.258;18.128;2023-05-07T05:36:39;4.22;;;4.13;;
10729;SDS011;5416;59.258;18.128;2023-05-07T05:39:06;5.00;;;4.80;;
10729;SDS011;5416;59.258;18.128;2023-05-07T05:41:36;5.15;;;4.95;;
10729;SDS011;5416;59.258;18.128;2023-05-07T05:44:03;4.20;;;4.10;;
10729;SDS011;5416;59.258;18.128;2023-05-07T05:46:30;4.03;;;3.92;;
10729;SDS011;5416;59.258;18.128;2023-05-07T05:48:58;4.43;;;4.32;;
10729;SDS011;5416;59.258;18.128;2023-05-07T05:51:25;4.03;;;3.92;;
10729;SDS011;5416;59.258;18.128;2023-05-07T05:53:52;4.25;;;4.15;;
10729;SDS011;5416;59.258;18.128;2023-05-07T05:56:20;4.30;;;4.20;;
10729;SDS011;5416;59.258;18.128;2023-05-07T05:58:49;4.70;;;4.50;;
10729;SDS011;5416;59.258;18.128;2023-05-07T06:01:16;4.90;;;4.70;;
10729;SDS011;5416;59.258;18.128;2023-05-07T06:03:44;4.50;;;4.40;;
10729;SDS011;5416;59.258;18.128;2023-05-07T06:06:11;4.00;;;3.90;;
10729;SDS011;5416;59.258;18.128;2023-05-07T06:08:39;4.70;;;4.50;;
10729;SDS011;5416;59.258;18.128;2023-05-07T06:11:07;4.25;;;4.15;;
10729;SDS011;5416;59.258;18.128;2023-05-07T06:13:34;4.40;;;4.30;;
10729;SDS011;5416;59.258;18.128;2023-05-07T06:16:03;4.22;;;4.13;;
10729;SDS011;5416;59.258;18.128;2023-05-07T06:18:30;3.95;;;3.85;;
10729;SDS011;5416;59.258;18.128;2023-05-07T06:20:58;3.67;;;3.58;;
10729;SDS011;5416;59.258;18.128;2023-05-07T06:23:25;4.68;;;4.50;;
10729;SDS011;5416;59.258;18.128;2023-05-07T06:25:52;4.43;;;4.32;;
10729;SDS011;5416;59.258;18.128;2023-05-07T06:28:19;4.60;;;4.50;;
10729;SDS011;5416;59.258;18.128;2023-05-07T06:30:47;4.55;;;4.43;;
10729;SDS011;5416;59.258;18.128;2023-05-07T06:33:16;4.20;;;4.10;;
10729;SDS011;5416;59.258;18.128;2023-05-07T06:35:44;4.05;;;3.95;;
10729;SDS011;5416;59.258;18.128;2023-05-07T06:38:12;4.38;;;4.28;;
10729;SDS011;5416;59.258;18.128;2023-05-07T06:40:39;4.28;;;4.18;;
10729;SDS011;5416;59.258;18.128;2023-05-07T06:43:06;3.63;;;3.53;;
10729;SDS011;5416;59.258;18.128;2023-05-07T06:45:33;4.28;;;4.18;;
10729;SDS011;5416;59.258;18.128;2023-05-07T06:48:01;4.18;;;4.07;;
10729;SDS011;5416;59.258;18.128;2023-05-07T06:50:30;4.30;;;4.20;;
10729;SDS011;5416;59.258;18.128;2023-05-07T06:52:57;4.17;;;4.07;;
10729;SDS011;5416;59.258;18.128;2023-05-07T06:55:25;3.97;;;3.88;;
10729;SDS011;5416;59.258;18.128;2023-05-07T06:57:52;4.10;;;4.00;;
10729;SDS011;5416;59.258;18.128;2023-05-07T07:00:19;4.97;;;4.78;;
10729;SDS011;5416;59.258;18.128;2023-05-07T07:02:47;4.10;;;4.00;;
10729;SDS011;5416;59.258;18.128;2023-05-07T07:05:14;4.13;;;4.03;;
10729;SDS011;5416;59.258;18.128;2023-05-07T07:07:43;3.80;;;3.70;;
10729;SDS011;5416;59.258;18.128;2023-05-07T07:10:17;4.00;;;3.90;;
10729;SDS011;5416;59.258;18.128;2023-05-07T07:12:45;4.20;;;4.10;;
10729;SDS011;5416;59.258;18.128;2023-05-07T07:15:12;3.97;;;3.88;;
10729;SDS011;5416;59.258;18.128;2023-05-07T07:17:40;3.80;;;3.70;;
10729;SDS011;5416;59.258;18.128;2023-05-07T07:20:07;4.07;;;3.97;;
10729;SDS011;5416;59.258;18.128;2023-05-07T07:22:35;4.00;;;3.90;;
10729;SDS011;5416;59.258;18.128;2023-05-07T07:25:04;3.72;;;3.63;;
10729;SDS011;5416;59.258;18.128;2023-05-07T07:27:31;4.20;;;4.10;;
10729;SDS011;5416;59.258;18.128;2023-05-07T07:29:58;4.18;;;4.07;;
10729;SDS011;5416;59.258;18.128;2023-05-07T07:32:26;4.20;;;4.10;;
10729;SDS011;5416;59.258;18.128;2023-05-07T07:34:53;3.87;;;3.77;;
10729;SDS011;5416;59.258;18.128;2023-05-07T07:37:20;4.20;;;4.10;;
10729;SDS011;5416;59.258;18.128;2023-05-07T07:39:48;4.10;;;4.00;;
10729;SDS011;5416;59.258;18.128;2023-05-07T07:42:16;4.18;;;4.07;;
10729;SDS011;5416;59.258;18.128;2023-05-07T07:44:44;4.28;;;4.18;;
10729;SDS011;5416;59.258;18.128;2023-05-07T07:47:11;4.28;;;4.18;;
10729;SDS011;5416;59.258;18.128;2023-05-07T07:49:39;3.97;;;3.88;;
10729;SDS011;5416;59.258;18.128;2023-05-07T07:52:06;4.00;;;3.90;;
10729;SDS011;5416;59.258;18.128;2023-05-07T07:54:33;4.10;;;4.00;;
10729;SDS011;5416;59.258;18.128;2023-05-07T07:57:00;4.05;;;3.95;;
10729;SDS011;5416;59.258;18.128;2023-05-07T07:59:29;4.22;;;4.13;;
10729;SDS011;5416;59.258;18.128;2023-05-07T08:01:56;4.35;;;4.25;;
10729;SDS011;5416;59.258;18.128;2023-05-07T08:04:23;4.50;;;4.40;;
10729;SDS011;5416;59.258;18.128;2023-05-07T08:06:51;4.05;;;3.95;;
10729;SDS011;5416;59.258;18.128;2023-05-07T08:09:19;4.63;;;4.50;;
10729;SDS011;5416;59.258;18.128;2023-05-07T08:11:46;4.43;;;4.32;;
10729;SDS011;5416;59.258;18.128;2023-05-07T08:14:13;3.72;;;3.63;;
10729;SDS011;5416;59.258;18.128;2023-05-07T08:16:43;3.90;;;3.80;;
10729;SDS011;5416;59.258;18.128;2023-05-07T08:19:10;4.40;;;4.30;;
10729;SDS011;5416;59.258;18.128;2023-05-07T08:21:38;3.90;;;3.80;;
10729;SDS011;5416;59.258;18.128;2023-05-07T08:24:06;4.18;;;4.07;;
10729;SDS011;5416;59.258;18.128;2023-05-07T08:26:33;4.00;;;3.90;;
10729;SDS011;5416;59.258;18.128;2023-05-07T08:29:01;3.73;;;3.63;;
10729;SDS011;5416;59.258;18.128;2023-05-07T08:31:28;3.83;;;3.72;;
10729;SDS011;5416;59.258;18.128;2023-05-07T08:33:57;3.97;;;3.88;;
10729;SDS011;5416;59.258;18.128;2023-05-07T08:36:24;3.90;;;3.80;;
10729;SDS011;5416;59.258;18.128;2023-05-07T08:38:52;4.40;;;4.30;;
10729;SDS011;5416;59.258;18.128;2023-05-07T08:41:20;3.85;;;3.75;;
10729;SDS011;5416;59.258;18.128;2023-05-07T08:43:48;3.90;;;3.80;;
10729;SDS011;5416;59.258;18.128;2023-05-07T08:46:16;4.03;;;3.93;;
10729;SDS011;5416;59.258;18.128;2023-05-07T08:48:44;4.03;;;3.92;;
10729;SDS011;5416;59.258;18.128;2023-05-07T08:51:14;4.53;;;4.43;;
10729;SDS011;5416;59.258;18.128;2023-05-07T08:53:42;4.82;;;4.63;;
10729;SDS011;5416;59.258;18.128;2023-05-07T08:56:09;4.22;;;4.13;;
10729;SDS011;5416;59.258;18.128;2023-05-07T08:58:36;3.97;;;3.88;;
10729;SDS011;5416;59.258;18.128;2023-05-07T09:01:06;3.90;;;3.80;;
10729;SDS011;5416;59.258;18.128;2023-05-07T09:03:34;3.75;;;3.65;;
10729;SDS011;5416;59.258;18.128;2023-05-07T09:06:01;3.90;;;3.80;;
10729;SDS011;5416;59.258;18.128;2023-05-07T09:08:31;4.28;;;4.18;;
10729;SDS011;5416;59.258;18.128;2023-05-07T09:10:59;3.70;;;3.60;;
10729;SDS011;5416;59.258;18.128;2023-05-07T09:13:26;3.80;;;3.70;;
10729;SDS011;5416;59.258;18.128;2023-05-07T09:15:54;4.43;;;4.32;;
10729;SDS011;5416;59.258;18.128;2023-05-07T09:18:23;4.20;;;4.10;;
10729;SDS011;5416;59.258;18.128;2023-05-07T09:20:50;4.03;;;3.92;;
10729;SDS011;5416;59.258;18.128;2023-05-07T09:23:18;3.85;;;3.75;;
10729;SDS011;5416;59.258;18.128;2023-05-07T09:25:47;3.75;;;3.65;;
10729;SDS011;5416;59.258;18.128;2023-05-07T09:28:14;4.00;;;3.90;;
10729;SDS011;5416;59.258;18.128;2023-05-07T09:30:41;4.28;;;4.18;;
10729;SDS011;5416;59.258;18.128;2023-05-07T09:33:08;4.10;;;4.00;;
10729;SDS011;5416;59.258;18.128;2023-05-07T09:35:37;4.03;;;3.92;;
10729;SDS011;5416;59.258;18.128;2023-05-07T09:38:04;4.30;;;4.20;;
10729;SDS011;5416;59.258;18.128;2023-05-07T09:40:31;4.00;;;3.90;;
10729;SDS011;5416;59.258;18.128;2023-05-07T09:43:09;3.80;;;3.70;;
10729;SDS011;5416;59.258;18.128;2023-05-07T09:45:37;3.90;;;3.80;;
10729;SDS011;5416;59.258;18.128;2023-05-07T09:48:05;4.45;;;4.35;;
10729;SDS011;5416;59.258;18.128;2023-05-07T09:50:35;4.20;;;4.10;;
10729;SDS011;5416;59.258;18.128;2023-05-07T09:53:03;4.50;;;4.40;;
10729;SDS011;5416;59.258;18.128;2023-05-07T09:55:31;4.80;;;4.60;;
10729;SDS011;5416;59.258;18.128;2023-05-07T09:57:58;4.40;;;4.30;;
10729;SDS011;5416;59.258;18.128;2023-05-07T10:00:29;4.15;;;4.05;;
10729;SDS011;5416;59.258;18.128;2023-05-07T10:02:57;3.78;;;3.67;;
10729;SDS011;5416;59.258;18.128;2023-05-07T10:05:24;4.10;;;4.00;;
10729;SDS011;5416;59.258;18.128;2023-05-07T10:07:52;4.17;;;4.07;;
10729;SDS011;5416;59.258;18.128;2023-05-07T10:10:20;4.25;;;4.15;;
10729;SDS011;5416;59.258;18.128;2023-05-07T10:12:47;4.18;;;4.07;;
10729;SDS011;5416;59.258;18.128;2023-05-07T10:15:15;4.38;;;4.28;;
10729;SDS011;5416;59.258;18.128;2023-05-07T10:17:44;4.05;;;3.95;;
10729;SDS011;5416;59.258;18.128;2023-05-07T10:20:12;4.32;;;4.22;;
10729;SDS011;5416;59.258;18.128;2023-05-07T10:22:40;4.38;;;4.28;;
10729;SDS011;5416;59.258;18.128;2023-05-07T10:25:09;4.47;;;4.38;;
10729;SDS011;5416;59.258;18.128;2023-05-07T10:27:40;4.05;;;3.95;;
10729;SDS011;5416;59.258;18.128;2023-05-07T10:30:11;4.00;;;3.90;;
10729;SDS011;5416;59.258;18.128;2023-05-07T10:32:40;4.10;;;4.00;;
10729;SDS011;5416;59.258;18.128;2023-05-07T10:35:11;4.70;;;4.50;;
10729;SDS011;5416;59.258;18.128;2023-05-07T10:37:41;4.00;;;3.90;;
10729;SDS011;5416;59.258;18.128;2023-05-07T10:40:09;4.20;;;4.10;;
10729;SDS011;5416;59.258;18.128;2023-05-07T10:42:37;4.40;;;4.30;;
10729;SDS011;5416;59.258;18.128;2023-05-07T10:45:13;4.07;;;3.97;;
10729;SDS011;5416;59.258;18.128;2023-05-07T10:50:29;4.18;;;4.07;;
10729;SDS011;5416;59.258;18.128;2023-05-07T10:55:42;4.40;;;4.30;;
10729;SDS011;5416;59.258;18.128;2023-05-07T10:58:22;4.53;;;4.40;;
10729;SDS011;5416;59.258;18.128;2023-05-07T11:00:50;4.43;;;4.32;;
10729;SDS011;5416;59.258;18.128;2023-05-07T11:03:17;4.05;;;3.95;;
10729;SDS011;5416;59.258;18.128;2023-05-07T11:05:46;3.92;;;3.83;;
10729;SDS011;5416;59.258;18.128;2023-05-07T11:08:14;4.35;;;4.25;;
10729;SDS011;5416;59.258;18.128;2023-05-07T11:10:47;4.55;;;4.43;;
10729;SDS011;5416;59.258;18.128;2023-05-07T11:13:15;4.15;;;4.05;;
10729;SDS011;5416;59.258;18.128;2023-05-07T11:15:43;3.90;;;3.80;;
10729;SDS011;5416;59.258;18.128;2023-05-07T11:18:11;3.83;;;3.73;;
10729;SDS011;5416;59.258;18.128;2023-05-07T11:26:14;4.30;;;4.20;;
10729;SDS011;5416;59.258;18.128;2023-05-07T11:28:42;3.90;;;3.80;;
10729;SDS011;5416;59.258;18.128;2023-05-07T11:31:09;4.10;;;4.00;;
10729;SDS011;5416;59.258;18.128;2023-05-07T11:33:37;4.90;;;4.70;;
10729;SDS011;5416;59.258;18.128;2023-05-07T11:36:05;4.35;;;4.25;;
10729;SDS011;5416;59.258;18.128;2023-05-07T11:38:35;3.75;;;3.65;;
10729;SDS011;5416;59.258;18.128;2023-05-07T11:41:02;4.50;;;4.40;;
10729;SDS011;5416;59.258;18.128;2023-05-07T11:43:31;3.90;;;3.80;;
10729;SDS011;5416;59.258;18.128;2023-05-07T11:46:08;3.90;;;3.80;;
10729;SDS011;5416;59.258;18.128;2023-05-07T11:48:36;4.30;;;4.20;;
10729;SDS011;5416;59.258;18.128;2023-05-07T11:51:04;4.43;;;4.32;;
10729;SDS011;5416;59.258;18.128;2023-05-07T11:53:38;4.13;;;4.03;;
10729;SDS011;5416;59.258;18.128;2023-05-07T11:56:06;4.20;;;4.10;;
10729;SDS011;5416;59.258;18.128;2023-05-07T11:58:35;4.53;;;4.43;;
10729;SDS011;5416;59.258;18.128;2023-05-07T12:01:02;4.78;;;4.57;;
10729;SDS011;5416;59.258;18.128;2023-05-07T12:03:30;4.40;;;4.30;;
10729;SDS011;5416;59.258;18.128;2023-05-07T12:05:59;4.37;;;4.27;;
10729;SDS011;5416;59.258;18.128;2023-05-07T12:08:26;4.65;;;4.53;;
10729;SDS011;5416;59.258;18.128;2023-05-07T12:10:53;4.05;;;3.95;;
10729;SDS011;5416;59.258;18.128;2023-05-07T12:13:21;4.30;;;4.20;;
10729;SDS011;5416;59.258;18.128;2023-05-07T12:15:51;4.47;;;4.38;;
10729;SDS011;5416;59.258;18.128;2023-05-07T12:18:19;4.03;;;3.93;;
10729;SDS011;5416;59.258;18.128;2023-05-07T12:20:47;4.10;;;4.00;;
10729;SDS011;5416;59.258;18.128;2023-05-07T12:23:14;4.45;;;4.35;;
10729;SDS011;5416;59.258;18.128;2023-05-07T12:25:42;4.20;;;4.10;;
10729;SDS011;5416;59.258;18.128;2023-05-07T12:28:12;4.03;;;3.92;;
10729;SDS011;5416;59.258;18.128;2023-05-07T12:30:40;4.15;;;4.05;;
10729;SDS011;5416;59.258;18.128;2023-05-07T12:33:10;4.10;;;4.00;;
10729;SDS011;5416;59.258;18.128;2023-05-07T12:35:39;4.35;;;4.25;;
10729;SDS011;5416;59.258;18.128;2023-05-07T12:38:07;4.15;;;4.05;;
10729;SDS011;5416;59.258;18.128;2023-05-07T12:40:36;4.30;;;4.20;;
10729;SDS011;5416;59.258;18.128;2023-05-07T12:43:03;4.28;;;4.18;;
10729;SDS011;5416;59.258;18.128;2023-05-07T12:45:30;4.05;;;3.95;;
10729;SDS011;5416;59.258;18.128;2023-05-07T12:48:01;4.80;;;4.60;;
10729;SDS011;5416;59.258;18.128;2023-05-07T12:50:32;3.73;;;3.63;;
10729;SDS011;5416;59.258;18.128;2023-05-07T12:53:00;4.50;;;4.40;;
10729;SDS011;5416;59.258;18.128;2023-05-07T12:55:28;4.28;;;4.18;;
10729;SDS011;5416;59.258;18.128;2023-05-07T12:57:55;4.30;;;4.20;;
10729;SDS011;5416;59.258;18.128;2023-05-07T13:00:33;4.22;;;4.13;;
10729;SDS011;5416;59.258;18.128;2023-05-07T13:03:00;4.28;;;4.18;;
10729;SDS011;5416;59.258;18.128;2023-05-07T13:05:27;3.85;;;3.75;;
10729;SDS011;5416;59.258;18.128;2023-05-07T13:07:56;4.13;;;4.03;;
10729;SDS011;5416;59.258;18.128;2023-05-07T13:10:24;4.30;;;4.20;;
10729;SDS011;5416;59.258;18.128;2023-05-07T13:12:51;3.90;;;3.80;;
10729;SDS011;5416;59.258;18.128;2023-05-07T13:15:21;4.00;;;3.90;;
10729;SDS011;5416;59.258;18.128;2023-05-07T13:17:48;4.45;;;4.35;;
10729;SDS011;5416;59.258;18.128;2023-05-07T13:20:15;3.95;;;3.85;;
10729;SDS011;5416;59.258;18.128;2023-05-07T13:22:43;4.13;;;4.03;;
10729;SDS011;5416;59.258;18.128;2023-05-07T13:25:11;3.90;;;3.80;;
10729;SDS011;5416;59.258;18.128;2023-05-07T13:27:39;4.63;;;4.47;;
10729;SDS011;5416;59.258;18.128;2023-05-07T13:30:06;4.40;;;4.20;;
10729;SDS011;5416;59.258;18.128;2023-05-07T13:32:34;4.22;;;4.13;;
10729;SDS011;5416;59.258;18.128;2023-05-07T13:35:01;4.05;;;3.95;;
10729;SDS011;5416;59.258;18.128;2023-05-07T13:37:28;4.43;;;4.32;;
10729;SDS011;5416;59.258;18.128;2023-05-07T13:39:55;4.90;;;4.70;;
10729;SDS011;5416;59.258;18.128;2023-05-07T13:42:24;4.80;;;4.60;;
10729;SDS011;5416;59.258;18.128;2023-05-07T13:44:52;4.40;;;4.30;;
10729;SDS011;5416;59.258;18.128;2023-05-07T13:47:19;4.03;;;3.92;;
10729;SDS011;5416;59.258;18.128;2023-05-07T13:49:46;3.87;;;3.77;;
10729;SDS011;5416;59.258;18.128;2023-05-07T13:52:15;4.80;;;4.60;;
10729;SDS011;5416;59.258;18.128;2023-05-07T13:54:42;4.95;;;4.75;;
10729;SDS011;5416;59.258;18.128;2023-05-07T13:57:09;4.30;;;4.20;;
10729;SDS011;5416;59.258;18.128;2023-05-07T13:59:38;4.17;;;4.07;;
10729;SDS011;5416;59.258;18.128;2023-05-07T14:02:05;3.80;;;3.70;;
10729;SDS011;5416;59.258;18.128;2023-05-07T14:04:34;4.20;;;4.10;;
10729;SDS011;5416;59.258;18.128;2023-05-07T14:07:02;4.50;;;4.40;;
10729;SDS011;5416;59.258;18.128;2023-05-07T14:09:30;4.38;;;4.28;;
10729;SDS011;5416;59.258;18.128;2023-05-07T14:11:58;3.80;;;3.70;;
10729;SDS011;5416;59.258;18.128;2023-05-07T14:14:26;4.05;;;3.95;;
10729;SDS011;5416;59.258;18.128;2023-05-07T14:16:55;4.15;;;4.05;;
10729;SDS011;5416;59.258;18.128;2023-05-07T14:19:22;4.87;;;4.67;;
10729;SDS011;5416;59.258;18.128;2023-05-07T14:21:49;4.45;;;4.35;;
10729;SDS011;5416;59.258;18.128;2023-05-07T14:24:20;4.10;;;4.00;;
10729;SDS011;5416;59.258;18.128;2023-05-07T14:26:47;3.85;;;3.75;;
10729;SDS011;5416;59.258;18.128;2023-05-07T14:29:14;3.92;;;3.83;;
10729;SDS011;5416;59.258;18.128;2023-05-07T14:31:43;4.60;;;4.47;;
10729;SDS011;5416;59.258;18.128;2023-05-07T14:34:12;4.20;;;4.10;;
10729;SDS011;5416;59.258;18.128;2023-05-07T14:36:40;4.13;;;4.03;;
10729;SDS011;5416;59.258;18.128;2023-05-07T14:39:09;4.30;;;4.20;;
10729;SDS011;5416;59.258;18.128;2023-05-07T14:41:36;4.90;;;4.70;;
10729;SDS011;5416;59.258;18.128;2023-05-07T14:44:03;4.18;;;4.07;;
10729;SDS011;5416;59.258;18.128;2023-05-07T14:46:31;3.88;;;3.78;;
10729;SDS011;5416;59.258;18.128;2023-05-07T14:48:58;4.47;;;4.38;;
10729;SDS011;5416;59.258;18.128;2023-05-07T14:51:27;4.22;;;4.13;;
10729;SDS011;5416;59.258;18.128;2023-05-07T14:53:54;4.25;;;4.15;;
10729;SDS011;5416;59.258;18.128;2023-05-07T14:56:21;4.13;;;4.03;;
10729;SDS011;5416;59.258;18.128;2023-05-07T14:58:48;4.00;;;3.90;;
10729;SDS011;5416;59.258;18.128;2023-05-07T15:01:16;4.15;;;4.05;;
10729;SDS011;5416;59.258;18.128;2023-05-07T15:03:43;4.03;;;3.92;;